createdAt,value
2022-08-05T00:00:22.980Z,22.00
2022-08-05T00:03:07.486Z,21.94
2022-08-05T00:06:06.427Z,21.88
2022-08-05T00:08:34.798Z,21.83
2022-08-05T00:11:20.720Z,21.78
2022-08-05T00:13:55.843Z,21.75
2022-08-05T00:16:36.592Z,21.71
2022-08-05T00:19:10.510Z,21.63
2022-08-05T00:21:37.577Z,21.62
2022-08-05T00:24:10.344Z,21.58
2022-08-05T00:26:39.053Z,21.52
2022-08-05T00:29:13.873Z,21.48
2022-08-05T00:32:10.162Z,21.44
2022-08-05T00:34:54.674Z,21.37
2022-08-05T00:37:16.290Z,21.32
2022-08-05T00:39:44.263Z,21.27
2022-08-05T00:42:38.378Z,21.25
2022-08-05T00:45:11.778Z,21.19
2022-08-05T00:47:56.905Z,21.14
2022-08-05T00:50:25.702Z,21.11
2022-08-05T00:52:55.072Z,21.04
2022-08-05T00:55:42.345Z,21.01
2022-08-05T00:58:12.615Z,20.96
2022-08-05T01:00:42.174Z,20.93
2022-08-05T01:03:22.228Z,20.88
2022-08-05T01:05:54.642Z,20.81
2022-08-05T01:08:40.259Z,20.79
2022-08-05T01:11:37.007Z,20.73
2022-08-05T01:14:15.428Z,20.71
2022-08-05T01:17:03.296Z,20.67
2022-08-05T01:20:02.424Z,20.61
2022-08-05T01:23:15.237Z,20.57
2022-08-05T01:26:02.903Z,20.52
2022-08-05T01:28:51.828Z,20.48
2022-08-05T01:31:44.540Z,20.43
2022-08-05T01:34:22.501Z,20.39
2022-08-05T01:37:25.893Z,20.34
2022-08-05T01:39:59.205Z,20.31
2022-08-05T01:42:29.061Z,20.26
2022-08-05T01:45:02.236Z,20.19
2022-08-05T01:47:39.360Z,20.18
2022-08-05T01:50:15.435Z,20.12
2022-08-05T01:52:50.134Z,20.07
2022-08-05T01:55:22.317Z,20.05
2022-08-05T01:58:29.350Z,19.99
2022-08-05T02:00:48.879Z,19.97
2022-08-05T02:03:34.490Z,19.94
2022-08-05T02:06:36.955Z,19.92
2022-08-05T02:08:58.180Z,19.86
2022-08-05T02:12:16.161Z,19.81
2022-08-05T02:14:52.510Z,19.77
2022-08-05T02:18:33.296Z,19.73
2022-08-05T02:20:33.674Z,19.68
2022-08-05T02:23:11.660Z,19.66
2022-08-05T02:25:49.215Z,19.59
2022-08-05T02:28:28.816Z,19.55
2022-08-05T02:31:06.047Z,19.52
2022-08-05T02:33:42.102Z,19.45
2022-08-05T02:36:15.631Z,19.41
2022-08-05T02:38:53.573Z,19.38
2022-08-05T02:41:28.394Z,19.34
2022-08-05T02:44:13.251Z,19.32
2022-08-05T02:46:58.753Z,19.26
2022-08-05T02:49:37.976Z,19.22
2022-08-05T02:52:30.148Z,19.18
2022-08-05T02:55:01.883Z,19.15
2022-08-05T02:58:10.668Z,19.10
2022-08-05T03:00:21.754Z,19.07
2022-08-05T03:02:50.564Z,19.04
2022-08-05T03:05:21.872Z,19.01
2022-08-05T03:08:09.698Z,18.98
2022-08-05T03:10:36.949Z,18.93
2022-08-05T03:13:16.819Z,18.89
2022-08-05T03:15:48.489Z,18.84
2022-08-05T03:18:19.087Z,18.84
2022-08-05T03:20:57.467Z,18.79
2022-08-05T03:23:25.679Z,18.77
2022-08-05T03:26:04.366Z,18.74
2022-08-05T03:28:41.023Z,18.70
2022-08-05T03:31:09.069Z,18.70
2022-08-05T03:33:51.255Z,18.66
2022-08-05T03:36:30.255Z,18.67
2022-08-05T03:38:58.719Z,18.65
2022-08-05T03:41:26.320Z,18.63
2022-08-05T03:44:11.516Z,18.63
2022-08-05T03:46:39.441Z,18.62
2022-08-05T03:49:06.750Z,18.63
2022-08-05T03:52:38.456Z,18.67
2022-08-05T03:56:04.437Z,18.69
2022-08-05T03:57:52.702Z,18.71
2022-08-05T04:00:26.697Z,18.74
2022-08-05T04:02:58.395Z,18.79
2022-08-05T04:05:33.935Z,18.82
2022-08-05T04:08:30.234Z,18.88
2022-08-05T04:10:59.045Z,18.91
2022-08-05T04:13:44.089Z,18.97
2022-08-05T04:16:15.099Z,19.02
2022-08-05T04:18:54.362Z,19.13
2022-08-05T04:22:05.237Z,19.23
2022-08-05T04:24:19.693Z,19.34
2022-08-05T04:26:50.756Z,19.44
2022-08-05T04:29:18.581Z,19.53
2022-08-05T04:31:48.480Z,19.64
2022-08-05T04:34:32.716Z,19.79
2022-08-05T04:37:03.218Z,19.93
2022-08-05T04:39:32.363Z,20.06
2022-08-05T04:42:03.807Z,20.19
2022-08-05T04:44:30.885Z,20.34
2022-08-05T04:46:59.449Z,20.49
2022-08-05T04:49:38.925Z,20.64
2022-08-05T04:52:15.633Z,20.81
2022-08-05T04:54:42.793Z,20.97
2022-08-05T04:57:10.009Z,21.13
2022-08-05T05:05:02.404Z,21.71
2022-08-05T05:18:37.823Z,22.71
2022-08-05T05:21:56.403Z,22.94
2022-08-05T05:24:58.034Z,23.15
2022-08-05T05:27:11.343Z,23.50
2022-08-05T05:30:05.067Z,23.79
2022-08-05T05:32:29.318Z,24.07
2022-08-05T05:34:57.181Z,24.27
2022-08-05T05:48:27.344Z,25.38
2022-08-05T05:50:58.091Z,25.58
2022-08-05T05:53:25.417Z,25.67
2022-08-05T05:56:00.827Z,25.82
2022-08-05T05:58:34.834Z,25.94
2022-08-05T06:01:12.619Z,26.02
2022-08-05T06:04:01.613Z,26.02
2022-08-05T06:06:33.176Z,26.43
2022-08-05T06:09:04.935Z,26.86
2022-08-05T06:11:33.597Z,27.15
2022-08-05T06:14:01.709Z,27.32
2022-08-05T06:16:36.804Z,27.45
2022-08-05T06:19:07.051Z,27.53
2022-08-05T06:21:38.770Z,27.71
2022-08-05T06:24:12.022Z,27.90
2022-08-05T06:26:51.343Z,28.06
2022-08-05T06:29:43.128Z,28.40
2022-08-05T06:32:24.993Z,28.51
2022-08-05T06:34:58.355Z,28.59
2022-08-05T06:37:56.894Z,28.68
2022-08-05T06:40:18.130Z,28.94
2022-08-05T06:42:52.093Z,29.12
2022-08-05T06:45:44.440Z,29.30
2022-08-05T06:48:37.246Z,29.47
2022-08-05T06:50:57.575Z,29.65
2022-08-05T06:53:28.417Z,29.65
2022-08-05T06:55:58.980Z,29.78
2022-08-05T06:58:35.418Z,30.13
2022-08-05T07:01:06.726Z,30.38
2022-08-05T07:09:17.618Z,30.92
2022-08-05T07:11:51.503Z,30.98
2022-08-05T07:14:37.775Z,30.98
2022-08-05T07:17:56.545Z,31.35
2022-08-05T07:22:44.272Z,31.66
2022-08-05T07:25:54.068Z,31.98
2022-08-05T07:28:04.183Z,32.10
2022-08-05T07:30:39.388Z,32.19
2022-08-05T07:33:16.054Z,32.20
2022-08-05T07:36:02.889Z,32.51
2022-08-05T07:38:43.369Z,32.75
2022-08-05T07:42:14.223Z,32.95
2022-08-05T07:44:14.078Z,33.10
2022-08-05T07:46:48.399Z,33.25
2022-08-05T07:49:18.550Z,33.59
2022-08-05T07:51:48.970Z,33.85
2022-08-05T07:54:31.486Z,33.88
2022-08-05T07:57:18.092Z,33.80
2022-08-05T07:59:52.246Z,33.78
2022-08-05T08:02:26.554Z,33.79
2022-08-05T08:04:59.292Z,33.99
2022-08-05T08:07:28.210Z,34.06
2022-08-05T08:09:56.066Z,34.30
2022-08-05T08:12:48.914Z,34.27
2022-08-05T08:15:17.171Z,34.39
2022-08-05T08:17:46.187Z,34.60
2022-08-05T08:21:00.220Z,34.84
2022-08-05T08:24:00.024Z,35.14
2022-08-05T08:26:02.193Z,35.33
2022-08-05T08:28:36.050Z,35.45
2022-08-05T08:31:08.078Z,35.49
2022-08-05T08:33:38.011Z,35.50
2022-08-05T08:38:57.064Z,35.57
2022-08-05T08:41:51.066Z,35.86
2022-08-05T08:45:16.586Z,36.05
2022-08-05T08:47:21.665Z,36.28
